createdAt,value
2019-04-06T00:04:53.811Z,92.37
2019-04-06T00:07:23.739Z,83.97
2019-04-06T00:09:53.598Z,94.03
2019-04-06T00:12:23.543Z,92.80
2019-04-06T00:14:53.486Z,88.17
2019-04-06T00:17:23.409Z,102.57
2019-04-06T00:19:53.300Z,108.37
2019-04-06T00:22:23.165Z,93.87
2019-04-06T00:24:53.039Z,106.10
2019-04-06T00:27:24.585Z,97.10
2019-04-06T00:29:54.415Z,100.63
2019-04-06T00:32:31.148Z,93.57
2019-04-06T00:35:01.135Z,96.70
2019-04-06T00:37:31.039Z,95.87
2019-04-06T00:40:00.936Z,91.87
2019-04-06T00:42:30.850Z,87.80
2019-04-06T00:45:00.755Z,94.13
2019-04-06T00:47:30.548Z,93.87
2019-04-06T00:50:00.413Z,104.23
2019-04-06T00:52:30.267Z,99.47
2019-04-06T00:55:00.125Z,97.90
2019-04-06T00:57:29.959Z,99.10
2019-04-06T00:59:59.896Z,94.03
2019-04-06T01:02:29.739Z,97.47
2019-04-06T01:04:59.601Z,94.43
2019-04-06T01:07:29.469Z,106.00
2019-04-06T01:09:59.323Z,107.57
2019-04-06T01:12:29.145Z,101.50
2019-04-06T01:14:59.098Z,93.23
2019-04-06T01:17:29.855Z,97.27
2019-04-06T01:20:00.382Z,106.87
2019-04-06T01:22:30.898Z,105.80
2019-04-06T01:25:01.303Z,102.93
2019-04-06T01:27:31.741Z,97.03
2019-04-06T01:30:02.452Z,102.00
2019-04-06T01:32:33.082Z,98.83
2019-04-06T01:35:03.498Z,109.30
2019-04-06T01:37:34.232Z,96.87
2019-04-06T01:40:04.821Z,102.47
2019-04-06T01:42:35.331Z,93.23
2019-04-06T01:45:06.073Z,95.37
2019-04-06T01:47:36.585Z,91.70
2019-04-06T01:50:07.302Z,88.53
2019-04-06T01:52:37.560Z,86.00
2019-04-06T01:55:08.120Z,92.37
2019-04-06T01:57:38.632Z,95.07
2019-04-06T02:00:11.221Z,93.40
2019-04-06T02:02:44.047Z,88.17
2019-04-06T02:05:14.387Z,89.77
2019-04-06T02:07:44.900Z,95.77
2019-04-06T02:10:15.282Z,89.53
2019-04-06T02:12:45.817Z,107.47
2019-04-06T02:15:18.011Z,107.70
2019-04-06T02:17:48.670Z,92.80
2019-04-06T02:20:19.773Z,97.13
2019-04-06T02:22:51.426Z,92.70
2019-04-06T02:25:22.094Z,105.77
2019-04-06T02:27:53.101Z,96.63
2019-04-06T02:30:31.512Z,91.60
2019-04-06T02:33:07.629Z,104.47
2019-04-06T02:36:02.786Z,92.67
2019-04-06T02:38:43.306Z,95.57
2019-04-06T02:41:31.319Z,103.47
2019-04-06T02:44:01.491Z,105.20
2019-04-06T02:46:32.021Z,108.33
2019-04-06T02:49:02.206Z,104.47
2019-04-06T02:51:34.033Z,102.10
2019-04-06T02:54:04.327Z,90.47
2019-04-06T02:56:45.522Z,92.17
2019-04-06T02:59:06.674Z,99.87
2019-04-06T03:01:37.748Z,101.67
2019-04-06T03:04:07.886Z,95.53
2019-04-06T03:06:38.325Z,100.23
2019-04-06T03:09:11.353Z,111.50
2019-04-06T03:11:40.840Z,118.37
2019-04-06T03:14:10.880Z,119.70
2019-04-06T03:16:40.853Z,119.00
2019-04-06T03:19:10.729Z,123.87
2019-04-06T03:21:40.671Z,115.27
2019-04-06T03:24:10.747Z,114.20
2019-04-06T03:26:40.553Z,133.27
2019-04-06T03:29:10.510Z,135.70
2019-04-06T03:31:40.647Z,116.90
2019-04-06T03:34:10.747Z,136.00
2019-04-06T03:36:40.781Z,137.30
2019-04-06T03:39:11.308Z,143.30
2019-04-06T03:41:41.207Z,130.03
2019-04-06T03:44:34.125Z,141.90
2019-04-06T03:47:40.542Z,130.70
2019-04-06T03:53:24.057Z,241.27
2019-04-06T03:55:53.908Z,148.63
2019-04-06T03:58:24.236Z,135.50
2019-04-06T04:00:54.225Z,156.60
2019-04-06T04:03:24.219Z,156.07
2019-04-06T04:05:54.318Z,136.00
2019-04-06T04:08:24.363Z,140.80
2019-04-06T04:10:54.281Z,138.07
2019-04-06T04:13:24.426Z,150.60
2019-04-06T04:15:56.755Z,155.17
2019-04-06T04:18:26.194Z,166.43
2019-04-06T04:20:56.276Z,146.80
2019-04-06T04:23:26.329Z,137.90
2019-04-06T04:25:56.570Z,140.47
2019-04-06T04:28:26.672Z,136.87
2019-04-06T04:30:56.523Z,127.73
2019-04-06T04:33:26.497Z,135.37
2019-04-06T04:35:56.361Z,112.67
2019-04-06T04:38:26.290Z,110.90
2019-04-06T04:40:56.329Z,117.57
2019-04-06T04:43:26.566Z,108.27
2019-04-06T04:45:56.492Z,109.07
2019-04-06T04:48:36.782Z,101.63
2019-04-06T04:51:06.734Z,111.53
2019-04-06T04:53:45.308Z,105.03
2019-04-06T04:56:15.129Z,94.63
2019-04-06T04:58:45.049Z,85.03
2019-04-06T05:01:14.914Z,97.70
2019-04-06T05:03:44.877Z,89.77
2019-04-06T05:06:14.808Z,89.57
2019-04-06T05:08:44.658Z,85.50
2019-04-06T05:11:14.555Z,83.27
2019-04-06T05:13:46.378Z,91.50
2019-04-06T05:16:16.426Z,81.53
2019-04-06T05:18:46.750Z,82.07
2019-04-06T05:21:17.713Z,90.27
2019-04-06T05:23:47.753Z,84.17
2019-04-06T05:27:08.794Z,83.67
2019-04-06T05:29:41.175Z,78.67
2019-04-06T05:32:11.314Z,85.67
2019-04-06T05:34:41.438Z,90.77
2019-04-06T05:37:11.345Z,90.03
2019-04-06T05:39:41.275Z,90.93
2019-04-06T05:42:11.786Z,80.90
2019-04-06T05:44:41.781Z,86.30
2019-04-06T05:47:11.722Z,76.73
2019-04-06T05:49:41.938Z,70.97
2019-04-06T05:52:12.114Z,68.97
2019-04-06T05:54:42.424Z,69.57
2019-04-06T05:57:12.523Z,62.67
2019-04-06T05:59:42.684Z,58.90
2019-04-06T06:02:12.641Z,68.07
2019-04-06T06:04:43.063Z,58.93
2019-04-06T06:07:13.162Z,55.83
2019-04-06T06:09:43.163Z,54.27
2019-04-06T06:12:14.278Z,57.37
2019-04-06T06:14:44.421Z,51.73
2019-04-06T06:17:14.534Z,54.60
2019-04-06T06:19:44.722Z,50.23
2019-04-06T06:22:14.753Z,51.10
2019-04-06T06:24:44.703Z,43.30
2019-04-06T06:27:15.506Z,36.97
2019-04-06T06:29:45.553Z,41.70
2019-04-06T06:32:15.845Z,35.20
2019-04-06T06:34:46.122Z,36.43
2019-04-06T06:37:16.161Z,35.53
2019-04-06T06:39:46.358Z,36.47
2019-04-06T06:42:16.437Z,38.40
2019-04-06T06:44:46.411Z,34.67
2019-04-06T06:47:16.637Z,33.27
2019-04-06T06:49:46.830Z,34.20
2019-04-06T06:52:16.939Z,29.87
2019-04-06T06:54:46.877Z,36.27
2019-04-06T06:57:16.912Z,36.10
2019-04-06T06:59:46.925Z,35.53
2019-04-06T07:02:17.162Z,34.23
2019-04-06T07:04:47.090Z,37.60
2019-04-06T07:07:17.393Z,31.63
2019-04-06T07:09:47.433Z,28.77
2019-04-06T07:12:18.548Z,34.30
2019-04-06T07:14:49.362Z,28.13
2019-04-06T07:17:19.471Z,28.17
2019-04-06T07:19:49.416Z,28.77
2019-04-06T07:22:19.387Z,31.13
2019-04-06T07:24:49.333Z,34.40
2019-04-06T07:27:19.428Z,30.43
2019-04-06T07:29:49.436Z,29.17
2019-04-06T07:32:19.510Z,28.00
2019-04-06T07:34:49.512Z,27.70
2019-04-06T07:37:19.836Z,27.20
2019-04-06T07:39:50.744Z,30.87
2019-04-06T07:42:20.821Z,27.80
2019-04-06T07:44:50.992Z,28.63
2019-04-06T07:47:20.940Z,26.23
2019-04-06T07:49:51.105Z,29.00
2019-04-06T07:52:21.071Z,27.47
2019-04-06T07:54:51.027Z,29.00
2019-04-06T07:57:21.125Z,28.10
2019-04-06T07:59:51.127Z,25.07
2019-04-06T08:02:21.208Z,28.60
2019-04-06T08:04:51.340Z,27.10
2019-04-06T08:07:21.403Z,25.87
2019-04-06T08:09:51.369Z,25.33
2019-04-06T08:12:26.022Z,24.30
2019-04-06T08:14:57.550Z,26.77
2019-04-06T08:17:27.971Z,24.97
2019-04-06T08:19:58.818Z,27.73
2019-04-06T08:22:29.113Z,27.17
2019-04-06T08:25:00.034Z,23.97
2019-04-06T08:27:30.206Z,25.97
2019-04-06T08:30:00.240Z,28.27
2019-04-06T08:32:30.267Z,27.93
2019-04-06T08:35:01.882Z,24.83
2019-04-06T08:37:32.915Z,26.23
2019-04-06T08:40:02.836Z,26.70
2019-04-06T08:42:32.954Z,27.30
2019-04-06T08:45:03.219Z,24.30
2019-04-06T08:47:33.281Z,29.77
2019-04-06T08:50:03.526Z,25.47
2019-04-06T08:52:33.888Z,27.27
2019-04-06T09:39:21.811Z,31.03
2019-04-06T09:41:51.966Z,28.83
2019-04-06T09:44:43.233Z,29.10
2019-04-06T09:47:44.005Z,26.20
2019-04-06T09:50:36.715Z,27.30
2019-04-06T09:53:20.932Z,28.63
2019-04-06T09:56:10.041Z,26.67
2019-04-06T09:59:05.062Z,27.57
2019-04-06T10:01:42.612Z,27.03
2019-04-06T10:04:43.023Z,30.13
2019-04-06T10:07:30.505Z,29.87
2019-04-06T10:10:28.421Z,26.07
2019-04-06T10:13:15.422Z,29.53
2019-04-06T10:15:56.524Z,29.37
2019-04-06T10:18:32.933Z,28.43
2019-04-06T10:21:27.722Z,28.30
2019-04-06T10:24:22.606Z,26.63
2019-04-06T10:27:10.109Z,30.03
2019-04-06T10:30:01.668Z,24.27
2019-04-06T10:32:50.838Z,28.80
2019-04-06T10:35:38.707Z,26.20
2019-04-06T10:38:19.455Z,24.97
2019-04-06T10:41:07.853Z,24.63
2019-04-06T10:43:59.622Z,24.20
2019-04-06T10:46:46.949Z,23.87
2019-04-06T10:49:26.681Z,24.40
2019-04-06T10:52:30.781Z,22.10
2019-04-06T10:55:19.532Z,26.10
2019-04-06T10:58:07.188Z,20.20
2019-04-06T11:01:05.175Z,24.30
2019-04-06T11:03:44.540Z,27.73
2019-04-06T11:06:39.550Z,23.40
2019-04-06T11:09:34.836Z,21.77
2019-04-06T11:12:35.969Z,19.13
2019-04-06T11:15:28.631Z,18.97
2019-04-06T11:18:17.351Z,21.37
2019-04-06T11:21:21.370Z,23.97
2019-04-06T11:24:13.142Z,20.33
2019-04-06T11:27:04.813Z,60.40
2019-04-06T11:29:56.893Z,19.67
2019-04-06T11:32:44.242Z,22.00
2019-04-06T11:35:38.973Z,24.23
2019-04-06T11:38:23.453Z,20.80
2019-04-06T11:41:23.955Z,18.77
2019-04-06T11:44:15.534Z,18.83
2019-04-06T11:47:02.438Z,20.83
2019-04-06T11:49:51.307Z,18.57
2019-04-06T11:52:36.647Z,19.10
2019-04-06T11:55:28.341Z,18.67
2019-04-06T11:58:13.438Z,17.83
2019-04-06T12:00:52.632Z,19.23
2019-04-06T12:03:28.483Z,19.20
2019-04-06T12:06:26.040Z,19.37
2019-04-06T12:09:18.171Z,19.00
2019-04-06T12:12:13.041Z,20.60
2019-04-06T12:15:05.344Z,21.47
2019-04-06T12:17:54.089Z,18.37
2019-04-06T12:20:51.945Z,18.83
2019-04-06T12:23:43.749Z,20.37
2019-04-06T12:26:31.364Z,17.17
2019-04-06T12:29:16.929Z,18.23
2019-04-06T12:32:04.639Z,17.07
2019-04-06T12:35:11.913Z,27.20
2019-04-06T12:37:52.402Z,21.63
2019-04-06T12:40:44.309Z,20.20
2019-04-06T12:43:38.974Z,19.03
2019-04-06T12:46:24.721Z,22.80
2019-04-06T12:49:06.462Z,18.70
2019-04-06T12:51:55.338Z,19.53
2019-04-06T12:54:43.108Z,20.83
2019-04-06T12:57:29.760Z,20.17
2019-04-06T13:00:08.512Z,18.17
2019-04-06T13:02:47.385Z,20.50
2019-04-06T13:05:35.205Z,18.57
2019-04-06T13:08:28.574Z,17.67
2019-04-06T13:11:20.296Z,16.33
2019-04-06T13:14:21.308Z,19.67
2019-04-06T13:17:04.270Z,17.23
2019-04-06T13:19:45.699Z,19.30
2019-04-06T13:22:39.464Z,14.23
2019-04-06T13:25:33.968Z,16.60
2019-04-06T13:28:16.428Z,14.47
2019-04-06T13:31:01.814Z,15.80
2019-04-06T13:33:34.559Z,17.77
2019-04-06T13:36:21.479Z,20.83
2019-04-06T13:39:46.148Z,16.50
2019-04-06T13:42:55.070Z,16.97
2019-04-06T13:45:44.702Z,15.97
2019-04-06T13:48:39.501Z,14.07
2019-04-06T13:51:32.354Z,15.47
2019-04-06T13:54:28.337Z,14.43
2019-04-06T13:57:27.814Z,15.23
2019-04-06T14:00:34.717Z,13.23
2019-04-06T14:03:40.677Z,15.97
2019-04-06T14:06:49.826Z,13.90
2019-04-06T14:09:44.721Z,13.50
2019-04-06T14:12:44.384Z,14.17
2019-04-06T14:16:06.370Z,12.53
2019-04-06T14:19:27.178Z,13.03
2019-04-06T14:22:29.714Z,12.93
2019-04-06T14:25:30.751Z,15.53
2019-04-06T14:28:25.812Z,12.63
2019-04-06T14:31:37.768Z,15.63
2019-04-06T14:34:52.103Z,15.17
2019-04-06T14:37:48.124Z,12.43
2019-04-06T14:40:52.677Z,12.73
2019-04-06T14:43:49.177Z,12.13
2019-04-06T14:46:53.512Z,15.23
2019-04-06T14:49:59.997Z,13.90
2019-04-06T14:53:02.882Z,14.57
2019-04-06T14:56:03.997Z,12.07
2019-04-06T14:59:09.216Z,13.73
2019-04-06T15:02:18.509Z,14.80
2019-04-06T15:05:29.695Z,11.57
2019-04-06T15:08:36.680Z,13.10
2019-04-06T15:11:26.011Z,12.83
2019-04-06T15:14:39.443Z,13.40
2019-04-06T15:17:33.719Z,14.23
2019-04-06T15:20:19.274Z,12.43
2019-04-06T15:23:37.453Z,18.33
2019-04-06T15:26:52.062Z,12.63
2019-04-06T15:30:06.803Z,13.40
2019-04-06T15:33:13.732Z,11.93
2019-04-06T15:36:18.674Z,11.80
2019-04-06T15:39:20.412Z,11.63
2019-04-06T15:42:12.091Z,12.53
2019-04-06T15:45:14.124Z,13.07
2019-04-06T15:48:16.313Z,13.70
2019-04-06T15:51:18.177Z,12.97
2019-04-06T15:54:16.387Z,13.73
2019-04-06T15:57:24.912Z,10.97
2019-04-06T16:00:20.595Z,14.97
2019-04-06T16:03:25.094Z,13.20
2019-04-06T16:06:24.786Z,12.03
2019-04-06T16:09:37.546Z,17.00
2019-04-06T16:12:36.196Z,15.67
2019-04-06T16:15:37.017Z,16.47
2019-04-06T16:18:48.568Z,16.70
2019-04-06T16:21:43.626Z,15.57
2019-04-06T16:24:54.603Z,14.83
2019-04-06T16:27:56.302Z,13.37
2019-04-06T16:30:58.825Z,15.30
2019-04-06T16:33:55.849Z,15.57
2019-04-06T16:36:56.640Z,13.93
2019-04-06T16:39:47.770Z,16.60
2019-04-06T16:42:52.768Z,15.77
2019-04-06T16:45:58.183Z,13.97
2019-04-06T16:48:59.719Z,15.00
2019-04-06T16:52:08.769Z,14.23
2019-04-06T16:55:09.649Z,16.60
2019-04-06T16:58:08.729Z,13.97
2019-04-06T17:01:12.390Z,14.20
2019-04-06T17:04:11.292Z,14.27
2019-04-06T17:07:15.715Z,17.30
2019-04-06T17:10:05.810Z,12.13
2019-04-06T17:13:07.097Z,12.17
2019-04-06T17:16:20.216Z,16.50
2019-04-06T17:19:22.432Z,11.97
2019-04-06T17:22:18.154Z,13.57
2019-04-06T17:25:13.314Z,18.37
2019-04-06T17:28:12.696Z,17.77
2019-04-06T17:31:06.245Z,16.07
2019-04-06T17:34:08.566Z,16.73
2019-04-06T17:37:07.712Z,19.87
2019-04-06T17:40:00.161Z,20.90
2019-04-06T17:42:44.807Z,22.23
2019-04-06T17:45:32.457Z,21.57
2019-04-06T17:48:25.036Z,23.67
2019-04-06T17:51:17.115Z,17.37
2019-04-06T17:54:06.231Z,22.27
2019-04-06T17:56:51.285Z,21.53
2019-04-06T17:59:43.436Z,18.30
2019-04-06T18:02:45.924Z,17.90
2019-04-06T18:05:18.286Z,19.27
2019-04-06T18:08:22.183Z,18.03
2019-04-06T18:11:29.504Z,18.53
2019-04-06T18:13:59.767Z,19.17
2019-04-06T18:16:33.586Z,16.37
2019-04-06T18:19:03.550Z,38.67
2019-04-06T18:21:34.978Z,23.03
2019-04-06T18:24:10.263Z,39.10
2019-04-06T18:26:40.164Z,20.30
2019-04-06T18:29:10.774Z,17.43
2019-04-06T18:32:02.977Z,21.20
2019-04-06T18:34:33.167Z,22.17
2019-04-06T18:37:14.550Z,19.17
2019-04-06T18:39:44.489Z,38.50
2019-04-06T18:42:14.415Z,17.70
2019-04-06T18:44:44.348Z,20.13
2019-04-06T18:47:14.344Z,19.43
2019-04-06T18:49:44.341Z,20.10
2019-04-06T18:52:14.576Z,26.90
2019-04-06T18:54:45.068Z,19.93
2019-04-06T18:57:15.540Z,19.67
2019-04-06T18:59:46.028Z,18.03
2019-04-06T19:02:16.301Z,31.53
2019-04-06T19:05:21.911Z,42.93
2019-04-06T19:07:52.058Z,27.37
2019-04-06T19:10:22.326Z,18.80
2019-04-06T19:12:52.191Z,29.50
2019-04-06T19:15:22.875Z,25.30
2019-04-06T19:17:53.284Z,47.13
2019-04-06T19:20:23.495Z,41.30
2019-04-06T19:22:53.458Z,60.33
2019-04-06T19:25:23.482Z,36.70
2019-04-06T19:27:53.588Z,24.47
2019-04-06T19:30:25.035Z,19.47
2019-04-06T19:32:56.108Z,20.10
2019-04-06T19:35:26.106Z,18.93
2019-04-06T19:37:56.776Z,23.70
2019-04-06T19:40:27.337Z,25.13
2019-04-06T19:43:00.004Z,19.23
2019-04-06T19:45:30.477Z,18.40
2019-04-06T19:48:00.844Z,15.57
2019-04-06T19:50:30.713Z,21.33
2019-04-06T19:53:00.829Z,19.37
2019-04-06T19:55:30.907Z,20.67
2019-04-06T19:58:01.316Z,19.43
2019-04-06T20:00:32.512Z,17.90
2019-04-06T20:03:03.227Z,16.80
2019-04-06T20:05:33.618Z,21.83
2019-04-06T20:08:03.558Z,19.77
2019-04-06T20:10:35.880Z,19.30
2019-04-06T20:13:06.021Z,19.90
2019-04-06T20:15:36.367Z,17.37
2019-04-06T20:18:07.005Z,21.70
2019-04-06T20:20:37.657Z,16.73
2019-04-06T20:23:07.689Z,16.70
2019-04-06T20:25:38.244Z,18.40
2019-04-06T20:28:08.341Z,18.00
2019-04-06T20:30:40.095Z,19.33
2019-04-06T20:33:10.160Z,18.07
2019-04-06T20:35:40.007Z,16.33
2019-04-06T20:38:10.411Z,18.23
2019-04-06T20:40:41.816Z,16.50
2019-04-06T20:43:13.092Z,17.83
2019-04-06T20:45:43.184Z,17.30
2019-04-06T20:48:13.206Z,23.17
2019-04-06T20:50:43.145Z,17.77
2019-04-06T20:53:13.407Z,16.47
2019-04-06T20:55:43.628Z,17.60
2019-04-06T20:58:13.864Z,17.80
2019-04-06T21:00:43.771Z,16.30
2019-04-06T21:03:13.986Z,16.33
2019-04-06T21:05:44.163Z,20.20
2019-04-06T21:08:14.450Z,16.23
2019-04-06T21:10:44.510Z,18.93
2019-04-06T21:13:14.422Z,16.67
2019-04-06T21:15:45.043Z,18.63
2019-04-06T21:18:15.049Z,15.77
2019-04-06T21:20:45.284Z,15.50
2019-04-06T21:23:15.656Z,15.77
2019-04-06T21:25:46.444Z,19.37
2019-04-06T21:28:16.603Z,16.43
2019-04-06T21:30:46.695Z,18.67
2019-04-06T21:33:17.069Z,14.63
2019-04-06T21:35:47.453Z,14.40
2019-04-06T21:38:18.063Z,22.37
2019-04-06T21:40:48.042Z,19.67
2019-04-06T21:43:18.040Z,20.90
2019-04-06T21:45:47.976Z,18.73
2019-04-06T21:48:18.004Z,19.07
2019-04-06T21:50:47.943Z,16.43
2019-04-06T21:53:18.583Z,18.50
2019-04-06T21:56:00.248Z,34.63
2019-04-06T21:58:20.109Z,16.17
2019-04-06T22:00:53.521Z,18.63
2019-04-06T22:03:23.635Z,19.73
2019-04-06T22:05:53.603Z,22.03
2019-04-06T22:08:23.506Z,18.67
2019-04-06T22:10:53.947Z,19.70
2019-04-06T22:13:24.950Z,18.47
2019-04-06T22:15:55.538Z,20.63
2019-04-06T22:18:25.558Z,18.03
2019-04-06T22:20:55.701Z,17.30
2019-04-06T22:23:25.670Z,20.67
2019-04-06T22:25:55.639Z,18.60
2019-04-06T22:28:25.486Z,21.27
2019-04-06T22:30:55.507Z,14.97
2019-04-06T22:33:25.548Z,19.63
2019-04-06T22:35:55.733Z,20.30
2019-04-06T22:38:25.692Z,17.27
2019-04-06T22:40:55.733Z,28.80
2019-04-06T22:43:25.690Z,17.03
2019-04-06T22:45:56.334Z,18.27
2019-04-06T22:48:26.576Z,22.07
2019-04-06T22:50:56.559Z,18.57
2019-04-06T22:53:26.595Z,17.53
2019-04-06T22:55:56.595Z,19.33
2019-04-06T22:58:26.564Z,17.60
2019-04-06T23:01:00.604Z,20.57
2019-04-06T23:03:48.389Z,20.40
2019-04-06T23:06:23.619Z,20.80
2019-04-06T23:08:54.035Z,22.13
2019-04-06T23:11:24.073Z,19.80
2019-04-06T23:13:54.107Z,17.80
2019-04-06T23:16:24.711Z,19.00
2019-04-06T23:18:54.804Z,14.27
2019-04-06T23:21:24.799Z,17.57
2019-04-06T23:23:54.718Z,18.17
2019-04-06T23:26:25.015Z,17.27
2019-04-06T23:28:55.032Z,22.33
2019-04-06T23:31:25.704Z,18.60
2019-04-06T23:33:55.692Z,18.00
2019-04-06T23:36:30.725Z,19.07
2019-04-06T23:39:01.100Z,20.00
2019-04-06T23:41:31.213Z,21.97
2019-04-06T23:44:01.472Z,24.87
2019-04-06T23:46:31.631Z,24.00
2019-04-06T23:49:02.608Z,30.53
2019-04-06T23:51:32.763Z,22.33
2019-04-06T23:54:03.036Z,20.57
2019-04-06T23:56:33.458Z,24.77
2019-04-06T23:59:03.419Z,19.07
